createdAt,value
2023-08-27T00:01:58.707Z,8.00
2023-08-27T00:04:27.365Z,9.00
2023-08-27T00:06:55.359Z,9.00
2023-08-27T00:09:23.425Z,8.75
2023-08-27T00:11:51.460Z,7.50
2023-08-27T00:14:19.504Z,6.50
2023-08-27T00:16:47.656Z,9.50
2023-08-27T00:19:16.786Z,8.75
2023-08-27T00:21:44.868Z,10.00
2023-08-27T00:24:12.913Z,7.00
2023-08-27T00:26:40.962Z,10.00
2023-08-27T00:29:09.226Z,7.75
2023-08-27T00:31:37.374Z,9.00
2023-08-27T00:34:05.381Z,8.75
2023-08-27T00:36:33.418Z,8.75
2023-08-27T00:39:01.444Z,10.25
2023-08-27T00:41:29.467Z,10.00
2023-08-27T00:43:57.695Z,7.25
2023-08-27T00:46:25.720Z,7.75
2023-08-27T00:48:53.885Z,9.50
2023-08-27T00:51:22.021Z,8.50
2023-08-27T00:53:50.443Z,9.75
2023-08-27T00:56:18.565Z,9.25
2023-08-27T00:58:46.644Z,8.50
2023-08-27T01:01:15.443Z,8.00
2023-08-27T01:03:43.695Z,6.00
2023-08-27T01:06:11.803Z,7.25
2023-08-27T01:08:55.922Z,8.50
2023-08-27T01:11:59.451Z,8.00
2023-08-27T01:14:29.850Z,11.00
2023-08-27T01:16:59.382Z,7.00
2023-08-27T01:19:27.603Z,6.75
2023-08-27T01:21:55.616Z,7.25
2023-08-27T01:24:23.873Z,8.00
2023-08-27T01:26:51.896Z,10.00
2023-08-27T01:29:23.440Z,9.00
2023-08-27T01:32:02.718Z,8.00
2023-08-27T01:34:31.353Z,8.25
2023-08-27T01:36:59.710Z,10.50
2023-08-27T01:39:27.772Z,10.00
2023-08-27T01:41:55.871Z,9.00
2023-08-27T01:44:23.953Z,9.25
2023-08-27T01:46:52.012Z,8.75
2023-08-27T01:49:20.072Z,8.50
2023-08-27T01:51:48.099Z,8.25
2023-08-27T01:54:16.293Z,9.25
2023-08-27T01:56:44.297Z,8.75
2023-08-27T01:59:12.316Z,8.00
2023-08-27T02:01:40.310Z,8.25
2023-08-27T02:04:08.361Z,8.00
2023-08-27T02:06:36.379Z,7.25
2023-08-27T02:09:05.155Z,9.25
2023-08-27T02:11:33.231Z,7.50
2023-08-27T02:14:01.531Z,7.50
2023-08-27T02:16:29.653Z,8.75
2023-08-27T02:18:57.723Z,6.75
2023-08-27T02:21:25.813Z,7.25
2023-08-27T02:23:53.914Z,7.75
2023-08-27T02:26:21.936Z,9.00
2023-08-27T02:28:50.068Z,7.75
2023-08-27T02:31:18.224Z,9.00
2023-08-27T02:33:46.715Z,8.00
2023-08-27T02:36:48.531Z,8.00
2023-08-27T02:39:16.937Z,8.00
2023-08-27T02:41:45.011Z,8.75
2023-08-27T02:44:13.086Z,9.75
2023-08-27T02:46:41.101Z,10.00
2023-08-27T02:49:09.185Z,9.00
2023-08-27T02:51:37.191Z,8.75
2023-08-27T02:54:05.239Z,10.50
2023-08-27T02:56:33.311Z,8.00
2023-08-27T02:59:01.342Z,10.00
2023-08-27T03:01:29.403Z,11.00
2023-08-27T03:03:57.606Z,10.00
2023-08-27T03:06:25.759Z,11.75
2023-08-27T03:08:53.802Z,7.75
2023-08-27T03:11:21.876Z,13.75
2023-08-27T03:13:50.691Z,8.00
2023-08-27T03:16:18.807Z,7.00
2023-08-27T03:18:46.885Z,10.50
2023-08-27T03:21:14.935Z,8.00
2023-08-27T03:23:43.003Z,7.75
2023-08-27T03:26:11.046Z,7.50
2023-08-27T03:28:39.102Z,9.00
2023-08-27T03:31:07.212Z,12.50
2023-08-27T03:33:35.364Z,7.50
2023-08-27T03:36:04.046Z,8.50
2023-08-27T03:38:32.133Z,9.00
2023-08-27T03:41:00.143Z,9.00
2023-08-27T03:43:28.191Z,9.00
2023-08-27T03:45:56.265Z,8.50
2023-08-27T03:48:24.541Z,10.50
2023-08-27T03:50:52.610Z,9.75
2023-08-27T03:53:20.733Z,8.50
2023-08-27T03:55:48.736Z,7.50
2023-08-27T03:58:17.182Z,7.25
2023-08-27T04:00:45.280Z,6.50
2023-08-27T04:03:13.334Z,8.50
2023-08-27T04:05:42.438Z,11.25
2023-08-27T04:08:10.522Z,8.25
2023-08-27T04:10:38.568Z,8.75
2023-08-27T04:13:06.599Z,10.00
2023-08-27T04:15:35.566Z,11.50
2023-08-27T04:18:03.619Z,10.00
2023-08-27T04:20:32.491Z,7.75
2023-08-27T04:23:00.785Z,6.50
2023-08-27T04:25:29.255Z,8.25
2023-08-27T04:27:58.211Z,7.50
2023-08-27T04:30:26.433Z,7.50
2023-08-27T04:32:55.040Z,16.00
2023-08-27T04:35:23.203Z,6.75
2023-08-27T04:37:51.190Z,10.00
2023-08-27T04:40:19.265Z,7.75
2023-08-27T04:42:47.307Z,9.75
2023-08-27T04:45:15.437Z,7.50
2023-08-27T04:47:43.617Z,9.00
2023-08-27T04:50:11.746Z,7.75
2023-08-27T04:52:39.811Z,6.25
2023-08-27T04:55:08.623Z,8.75
2023-08-27T04:57:36.909Z,8.50
2023-08-27T05:00:11.808Z,7.75
2023-08-27T05:02:39.831Z,7.00
2023-08-27T05:05:08.058Z,6.00
2023-08-27T05:07:36.584Z,7.00
2023-08-27T05:10:05.001Z,8.25
2023-08-27T05:12:33.113Z,8.75
2023-08-27T05:15:01.275Z,7.75
2023-08-27T05:17:29.299Z,7.50
2023-08-27T05:19:57.457Z,8.50
2023-08-27T05:22:25.576Z,5.75
2023-08-27T05:24:53.578Z,6.25
2023-08-27T05:27:21.565Z,7.25
2023-08-27T05:29:49.638Z,6.50
2023-08-27T05:32:17.682Z,5.50
2023-08-27T05:34:45.657Z,6.50
2023-08-27T05:37:13.682Z,8.50
2023-08-27T05:39:41.720Z,5.75
2023-08-27T05:42:09.745Z,6.50
2023-08-27T05:44:37.976Z,7.00
2023-08-27T05:47:06.138Z,6.50
2023-08-27T05:49:34.218Z,8.25
2023-08-27T05:52:02.310Z,5.00
2023-08-27T05:54:30.397Z,6.25
2023-08-27T05:56:58.456Z,5.25
2023-08-27T05:59:26.480Z,7.25
2023-08-27T06:01:54.828Z,6.25
2023-08-27T06:04:22.946Z,6.00
2023-08-27T06:06:50.990Z,8.00
2023-08-27T06:09:19.473Z,5.25
2023-08-27T06:11:48.155Z,6.00
2023-08-27T06:14:16.213Z,5.75
2023-08-27T06:16:44.246Z,6.00
2023-08-27T06:19:12.313Z,6.00
2023-08-27T06:21:40.341Z,8.75
2023-08-27T06:24:08.531Z,5.50
2023-08-27T06:26:36.576Z,3.50
2023-08-27T06:29:05.052Z,4.75
2023-08-27T06:31:33.143Z,4.25
2023-08-27T06:34:01.251Z,5.00
2023-08-27T06:36:29.284Z,4.75
2023-08-27T06:38:57.343Z,6.00
2023-08-27T06:41:25.370Z,4.00
2023-08-27T06:43:53.410Z,6.00
2023-08-27T06:46:21.519Z,6.00
2023-08-27T06:48:49.583Z,4.00
2023-08-27T06:51:17.639Z,5.00
2023-08-27T06:53:45.634Z,5.00
2023-08-27T06:56:13.676Z,7.25
2023-08-27T06:58:41.713Z,4.25
2023-08-27T07:01:10.505Z,6.50
2023-08-27T07:03:39.207Z,5.00
2023-08-27T07:06:07.530Z,5.25
2023-08-27T07:08:35.617Z,5.00
2023-08-27T07:11:05.383Z,5.75
2023-08-27T07:13:33.422Z,3.50
2023-08-27T07:16:01.591Z,4.00
2023-08-27T07:18:29.788Z,5.00
2023-08-27T07:20:57.875Z,5.00
2023-08-27T07:23:26.207Z,6.00
2023-08-27T07:25:54.280Z,4.50
2023-08-27T07:28:23.191Z,6.00
2023-08-27T07:30:52.303Z,5.00
2023-08-27T07:33:20.410Z,5.75
2023-08-27T07:35:48.465Z,5.50
2023-08-27T07:38:16.749Z,6.75
2023-08-27T07:40:44.946Z,4.25
2023-08-27T07:43:12.950Z,4.00
2023-08-27T07:45:40.959Z,5.75
2023-08-27T07:48:11.498Z,5.00
2023-08-27T07:50:41.555Z,5.25
2023-08-27T07:53:09.654Z,6.25
2023-08-27T07:55:38.314Z,5.75
2023-08-27T07:58:06.405Z,5.75
2023-08-27T08:00:34.442Z,5.00
2023-08-27T08:03:02.595Z,3.50
2023-08-27T08:05:30.836Z,6.00
2023-08-27T08:07:59.273Z,4.25
2023-08-27T08:10:27.595Z,3.50
2023-08-27T08:12:56.034Z,4.75
2023-08-27T08:15:24.043Z,4.25
2023-08-27T08:17:52.192Z,4.75
2023-08-27T08:20:20.353Z,4.75
2023-08-27T08:22:48.432Z,3.50
2023-08-27T08:25:16.499Z,6.00
2023-08-27T08:27:44.551Z,4.75
2023-08-27T08:30:12.726Z,4.00
2023-08-27T08:32:40.831Z,4.00
2023-08-27T08:35:09.415Z,5.25
2023-08-27T08:37:37.432Z,4.00
2023-08-27T08:40:05.976Z,4.25
2023-08-27T08:42:37.064Z,6.50
2023-08-27T08:45:07.802Z,4.00
2023-08-27T08:47:37.834Z,5.00
2023-08-27T08:50:13.069Z,8.00
2023-08-27T08:52:41.645Z,3.25
2023-08-27T08:55:11.775Z,4.50
2023-08-27T08:57:45.838Z,5.00
2023-08-27T09:00:14.905Z,6.75
2023-08-27T09:02:44.301Z,7.00
2023-08-27T09:05:15.301Z,5.75
2023-08-27T09:07:44.914Z,5.50
2023-08-27T09:10:14.107Z,5.00
2023-08-27T09:12:42.660Z,6.25
2023-08-27T09:15:11.706Z,5.50
2023-08-27T09:17:40.573Z,6.00
2023-08-27T09:20:09.329Z,5.00
2023-08-27T09:22:38.129Z,5.00
2023-08-27T09:25:06.395Z,6.75
2023-08-27T09:27:34.999Z,3.00
2023-08-27T09:30:03.791Z,6.00
2023-08-27T09:32:32.362Z,5.75
2023-08-27T09:35:01.231Z,5.00
2023-08-27T09:37:30.229Z,6.00
2023-08-27T09:39:58.445Z,5.00
2023-08-27T09:42:26.628Z,4.50
2023-08-27T09:44:54.641Z,5.50
2023-08-27T09:47:36.126Z,4.00
2023-08-27T09:50:08.681Z,5.75
2023-08-27T09:52:36.781Z,6.25
2023-08-27T09:55:04.894Z,3.75
2023-08-27T09:57:33.206Z,5.00
2023-08-27T10:00:01.269Z,6.25
2023-08-27T10:02:29.300Z,4.00
2023-08-27T10:04:58.481Z,5.00
2023-08-27T10:07:26.530Z,5.50
2023-08-27T10:09:55.571Z,4.00
2023-08-27T10:12:24.147Z,5.50
2023-08-27T10:14:52.422Z,3.50
2023-08-27T10:17:20.409Z,5.75
2023-08-27T10:19:48.594Z,4.50
2023-08-27T10:22:17.668Z,4.00
2023-08-27T10:24:48.477Z,6.75
2023-08-27T10:27:17.429Z,5.75
2023-08-27T10:29:46.160Z,4.00
2023-08-27T10:32:15.456Z,6.00
2023-08-27T10:34:43.639Z,4.50
2023-08-27T10:37:13.456Z,13.25
2023-08-27T10:39:42.526Z,9.75
2023-08-27T10:42:10.545Z,12.25
2023-08-27T10:44:39.081Z,7.25
2023-08-27T10:47:19.907Z,7.25
2023-08-27T10:49:51.129Z,11.00
2023-08-27T10:52:20.710Z,8.50
2023-08-27T10:54:50.388Z,12.50
2023-08-27T10:57:24.401Z,9.25
2023-08-27T10:59:54.437Z,7.75
2023-08-27T11:02:22.830Z,5.25
2023-08-27T11:04:52.254Z,6.75
2023-08-27T11:07:21.405Z,7.00
2023-08-27T11:09:50.843Z,12.25
2023-08-27T11:12:37.629Z,7.25
2023-08-27T11:15:34.236Z,13.25
2023-08-27T11:18:22.025Z,8.50
2023-08-27T11:20:50.877Z,13.75
2023-08-27T11:23:19.185Z,8.50
2023-08-27T11:25:48.915Z,9.25
2023-08-27T11:28:17.144Z,9.00
2023-08-27T11:30:46.819Z,9.00
2023-08-27T11:33:16.718Z,7.75
2023-08-27T11:35:44.749Z,9.75
2023-08-27T11:38:12.769Z,9.75
2023-08-27T11:40:40.834Z,9.75
2023-08-27T11:43:08.828Z,9.75
2023-08-27T11:45:38.874Z,10.50
2023-08-27T11:48:08.138Z,9.75
2023-08-27T11:50:36.715Z,10.00
2023-08-27T11:53:05.007Z,9.25
2023-08-27T11:55:36.187Z,11.00
2023-08-27T11:58:07.606Z,8.25
2023-08-27T12:00:35.736Z,9.00
2023-08-27T12:03:04.293Z,8.00
2023-08-27T12:05:33.766Z,12.50
2023-08-27T12:08:07.077Z,11.00
2023-08-27T12:10:35.158Z,8.75
2023-08-27T12:13:03.249Z,9.25
2023-08-27T12:15:31.943Z,7.50
2023-08-27T12:18:00.310Z,8.00
2023-08-27T12:20:34.807Z,6.25
2023-08-27T12:23:13.054Z,9.50
2023-08-27T12:25:51.314Z,10.25
2023-08-27T12:28:19.522Z,8.50
2023-08-27T12:30:48.738Z,6.25
2023-08-27T12:33:16.833Z,6.00
2023-08-27T12:35:48.693Z,10.50
2023-08-27T12:38:16.844Z,5.50
2023-08-27T12:40:45.043Z,7.00
2023-08-27T12:43:13.059Z,5.00
2023-08-27T12:45:41.161Z,6.00
2023-08-27T12:48:09.339Z,6.50
2023-08-27T12:50:37.416Z,8.50
2023-08-27T12:53:05.665Z,9.50
2023-08-27T12:55:33.781Z,7.00
2023-08-27T12:58:02.091Z,10.25
2023-08-27T13:00:30.264Z,9.25
2023-08-27T13:02:58.549Z,9.00
2023-08-27T13:05:26.664Z,11.00
2023-08-27T13:07:54.660Z,9.00
2023-08-27T13:10:22.739Z,10.50
2023-08-27T13:12:50.841Z,11.25
2023-08-27T13:15:18.853Z,12.00
2023-08-27T13:17:46.935Z,11.50
2023-08-27T13:20:15.005Z,9.00
2023-08-27T13:22:43.073Z,8.00
2023-08-27T13:25:13.715Z,9.25
2023-08-27T13:27:41.745Z,8.25
2023-08-27T13:30:10.105Z,12.00
2023-08-27T13:32:38.206Z,9.50
2023-08-27T13:35:07.973Z,8.25
2023-08-27T13:37:36.057Z,9.00
2023-08-27T13:40:04.836Z,11.25
2023-08-27T13:42:32.944Z,6.75
2023-08-27T13:45:02.861Z,8.50
2023-08-27T13:47:31.006Z,8.50
2023-08-27T13:49:59.110Z,9.25
2023-08-27T13:52:27.376Z,10.75
2023-08-27T13:54:55.420Z,10.00
2023-08-27T13:57:23.447Z,10.75
2023-08-27T13:59:51.501Z,17.75
2023-08-27T14:02:19.565Z,15.25
2023-08-27T14:04:47.605Z,13.75
2023-08-27T14:07:15.657Z,12.75
2023-08-27T14:09:43.771Z,10.00
2023-08-27T14:12:11.888Z,12.25
2023-08-27T14:14:39.908Z,12.25
2023-08-27T14:17:08.213Z,9.50
2023-08-27T14:19:36.230Z,13.25
2023-08-27T14:22:04.263Z,14.50
2023-08-27T14:24:32.287Z,14.25
2023-08-27T14:27:00.523Z,14.00
2023-08-27T14:29:28.588Z,14.50
2023-08-27T14:31:56.593Z,13.50
2023-08-27T14:34:25.798Z,16.75
2023-08-27T14:36:54.770Z,17.25
2023-08-27T14:39:22.845Z,13.50
2023-08-27T14:41:50.890Z,13.50
2023-08-27T14:44:18.972Z,14.25
2023-08-27T14:46:47.077Z,14.50
2023-08-27T14:49:15.138Z,13.00
2023-08-27T14:51:43.231Z,15.75
2023-08-27T14:54:11.315Z,12.75
2023-08-27T14:56:39.427Z,13.25
2023-08-27T14:59:27.219Z,11.50
2023-08-27T15:01:55.359Z,14.75
2023-08-27T15:04:23.506Z,10.25
2023-08-27T15:06:51.612Z,12.00
2023-08-27T15:09:19.966Z,13.75
2023-08-27T15:11:48.461Z,12.25
2023-08-27T15:14:16.552Z,12.25
2023-08-27T15:16:44.567Z,13.75
2023-08-27T15:19:12.620Z,13.25
2023-08-27T15:21:40.990Z,13.50
2023-08-27T15:24:09.187Z,10.75
2023-08-27T15:26:37.377Z,11.00
2023-08-27T15:29:05.818Z,10.50
2023-08-27T15:31:34.061Z,10.00
2023-08-27T15:34:10.608Z,12.00
2023-08-27T15:36:39.245Z,12.00
2023-08-27T15:39:07.315Z,11.00
2023-08-27T15:41:36.775Z,12.00
2023-08-27T15:44:05.120Z,10.75
2023-08-27T15:46:33.472Z,11.75
2023-08-27T15:49:01.579Z,15.25
2023-08-27T15:51:29.936Z,12.25
2023-08-27T15:53:58.036Z,16.25
2023-08-27T15:56:26.105Z,13.25
2023-08-27T15:58:54.100Z,15.50
2023-08-27T16:01:22.150Z,15.00
2023-08-27T16:03:50.328Z,12.50
2023-08-27T16:06:19.673Z,12.75
2023-08-27T16:08:48.854Z,12.75
2023-08-27T16:11:16.950Z,13.25
2023-08-27T16:13:44.968Z,11.50
2023-08-27T16:16:12.987Z,11.75
2023-08-27T16:18:41.086Z,11.50
2023-08-27T16:21:09.122Z,12.00
2023-08-27T16:23:37.097Z,14.00
2023-08-27T16:26:05.290Z,15.75
2023-08-27T16:28:33.356Z,12.50
2023-08-27T16:31:02.075Z,12.00
2023-08-27T16:33:30.189Z,11.25
2023-08-27T16:35:58.180Z,12.50
2023-08-27T16:38:26.543Z,11.25
2023-08-27T16:40:54.807Z,11.75
2023-08-27T16:43:23.028Z,13.75
2023-08-27T16:45:55.179Z,14.00
2023-08-27T16:48:23.250Z,10.75
2023-08-27T16:50:52.299Z,14.00
2023-08-27T16:53:20.379Z,13.00
2023-08-27T16:55:48.696Z,10.75
2023-08-27T16:58:19.105Z,12.50
2023-08-27T17:00:47.146Z,14.50
2023-08-27T17:03:17.374Z,13.75
2023-08-27T17:05:45.807Z,12.25
2023-08-27T17:08:13.995Z,13.75
2023-08-27T17:10:42.059Z,16.50
2023-08-27T17:13:10.122Z,14.75
2023-08-27T17:15:38.205Z,14.00
2023-08-27T17:18:06.568Z,16.25
2023-08-27T17:20:34.645Z,15.50
2023-08-27T17:23:02.679Z,11.75
2023-08-27T17:25:30.766Z,14.75
2023-08-27T17:27:59.143Z,12.25
2023-08-27T17:30:27.590Z,11.75
2023-08-27T17:32:55.707Z,15.25
2023-08-27T17:35:23.744Z,16.25
2023-08-27T17:37:51.922Z,13.50
2023-08-27T17:40:20.003Z,11.50
2023-08-27T17:42:48.010Z,15.50
2023-08-27T17:45:16.071Z,12.00
2023-08-27T17:47:47.675Z,15.50
2023-08-27T17:50:16.144Z,12.50
2023-08-27T17:52:44.147Z,13.75
2023-08-27T17:55:12.129Z,12.75
2023-08-27T17:57:40.228Z,12.00
2023-08-27T18:00:08.664Z,10.25
2023-08-27T18:02:36.798Z,9.00
2023-08-27T18:05:04.959Z,11.75
2023-08-27T18:07:33.015Z,11.25
2023-08-27T18:10:01.077Z,10.75
2023-08-27T18:12:29.108Z,10.75
2023-08-27T18:14:57.401Z,9.50
2023-08-27T18:17:25.554Z,10.25
2023-08-27T18:19:53.576Z,10.25
2023-08-27T18:22:21.757Z,9.25
2023-08-27T18:24:49.757Z,11.25
2023-08-27T18:27:17.742Z,10.00
2023-08-27T18:29:45.873Z,11.75
2023-08-27T18:32:13.944Z,11.75
2023-08-27T18:34:41.939Z,11.00
2023-08-27T18:37:09.973Z,11.75
2023-08-27T18:39:39.038Z,13.00
2023-08-27T18:42:09.111Z,12.75
2023-08-27T18:44:40.436Z,11.75
2023-08-27T18:47:08.529Z,10.50
2023-08-27T18:49:36.686Z,13.50
2023-08-27T18:52:04.824Z,10.75
2023-08-27T18:54:32.934Z,14.50
2023-08-27T18:57:00.939Z,13.25
2023-08-27T18:59:29.014Z,13.75
2023-08-27T19:01:57.108Z,15.50
2023-08-27T19:04:25.293Z,14.25
2023-08-27T19:06:53.338Z,14.25
2023-08-27T19:09:21.362Z,15.00
2023-08-27T19:11:49.357Z,13.50
2023-08-27T19:14:17.371Z,18.00
2023-08-27T19:16:47.080Z,14.50
2023-08-27T19:19:15.175Z,11.50
2023-08-27T19:21:43.305Z,12.00
2023-08-27T19:24:11.879Z,12.50
2023-08-27T19:26:40.045Z,12.75
2023-08-27T19:29:08.166Z,10.75
2023-08-27T19:31:46.021Z,8.75
2023-08-27T19:34:15.676Z,11.25
2023-08-27T19:36:44.432Z,11.00
2023-08-27T19:39:14.293Z,12.25
2023-08-27T19:41:42.492Z,10.50
2023-08-27T19:44:10.475Z,8.25
2023-08-27T19:46:38.575Z,10.75
2023-08-27T19:49:06.774Z,12.00
2023-08-27T19:51:36.109Z,10.75
2023-08-27T19:54:04.474Z,11.00
2023-08-27T19:56:32.701Z,10.00
2023-08-27T19:59:00.876Z,13.25
2023-08-27T20:01:28.962Z,8.00
2023-08-27T20:03:57.065Z,12.00
2023-08-27T20:06:25.228Z,10.25
2023-08-27T20:08:53.336Z,8.50
2023-08-27T20:11:21.393Z,11.00
2023-08-27T20:13:49.452Z,13.50
2023-08-27T20:16:17.592Z,10.00
2023-08-27T20:18:45.731Z,7.75
2023-08-27T20:21:13.874Z,10.25
2023-08-27T20:23:41.953Z,9.00
2023-08-27T20:26:10.101Z,13.25
2023-08-27T20:28:38.195Z,13.50
2023-08-27T20:31:06.329Z,10.00
2023-08-27T20:33:34.545Z,11.25
2023-08-27T20:36:02.809Z,9.00
2023-08-27T20:38:30.881Z,7.75
2023-08-27T20:41:02.807Z,9.50
2023-08-27T20:43:36.659Z,9.50
2023-08-27T20:46:05.755Z,12.25
2023-08-27T20:48:33.947Z,9.00
2023-08-27T20:51:02.066Z,7.00
2023-08-27T20:53:30.681Z,9.75
2023-08-27T20:55:58.888Z,10.00
2023-08-27T20:58:27.137Z,7.50
2023-08-27T21:00:55.180Z,11.00
2023-08-27T21:03:23.306Z,8.50
2023-08-27T21:05:51.376Z,10.75
2023-08-27T21:08:19.417Z,8.75
2023-08-27T21:10:49.152Z,10.00
2023-08-27T21:13:17.305Z,8.00
2023-08-27T21:15:45.364Z,7.00
2023-08-27T21:18:13.583Z,7.25
2023-08-27T21:20:41.613Z,9.75
2023-08-27T21:23:11.373Z,11.50
2023-08-27T21:25:39.424Z,10.50
2023-08-27T21:28:07.601Z,9.75
2023-08-27T21:30:35.898Z,9.00
2023-08-27T21:33:04.206Z,10.75
2023-08-27T21:35:32.449Z,9.00
2023-08-27T21:38:00.510Z,7.00
2023-08-27T21:40:28.526Z,9.50
2023-08-27T21:42:56.514Z,8.00
2023-08-27T21:45:24.621Z,8.50
2023-08-27T21:47:52.708Z,10.00
2023-08-27T21:50:21.198Z,9.75
2023-08-27T21:52:49.289Z,10.75
2023-08-27T21:55:17.377Z,10.75
2023-08-27T21:57:45.451Z,9.50
2023-08-27T22:00:13.944Z,7.50
2023-08-27T22:02:42.075Z,8.25
2023-08-27T22:05:10.260Z,9.00
2023-08-27T22:07:38.440Z,8.50
2023-08-27T22:10:07.973Z,8.50
2023-08-27T22:12:36.061Z,10.25
2023-08-27T22:15:04.246Z,11.50
2023-08-27T22:17:32.347Z,9.00
2023-08-27T22:20:00.688Z,8.50
2023-08-27T22:22:28.771Z,10.00
2023-08-27T22:24:56.816Z,9.00
2023-08-27T22:27:24.922Z,11.75
2023-08-27T22:29:53.028Z,8.00
2023-08-27T22:32:21.027Z,9.75
2023-08-27T22:34:50.245Z,7.25
2023-08-27T22:37:18.239Z,11.50
2023-08-27T22:39:46.322Z,10.00
2023-08-27T22:42:15.199Z,10.00
2023-08-27T22:44:43.462Z,8.50
2023-08-27T22:47:11.646Z,9.00
2023-08-27T22:49:39.634Z,11.25
2023-08-27T22:52:07.771Z,8.00
2023-08-27T22:54:35.845Z,9.25
2023-08-27T22:57:04.067Z,11.50
2023-08-27T22:59:32.774Z,8.75
2023-08-27T23:02:00.802Z,10.00
2023-08-27T23:04:28.816Z,9.00
2023-08-27T23:06:56.808Z,11.25
2023-08-27T23:09:24.900Z,10.00
2023-08-27T23:11:52.900Z,10.25
2023-08-27T23:14:21.085Z,11.50
2023-08-27T23:16:49.343Z,13.00
2023-08-27T23:19:17.499Z,11.25
2023-08-27T23:21:45.554Z,13.00
2023-08-27T23:24:13.563Z,11.75
2023-08-27T23:26:42.215Z,10.75
2023-08-27T23:29:10.258Z,11.25
2023-08-27T23:31:38.308Z,10.00
2023-08-27T23:34:06.403Z,10.00
2023-08-27T23:36:34.456Z,12.50
2023-08-27T23:39:02.763Z,10.75
2023-08-27T23:41:30.837Z,10.25
2023-08-27T23:43:58.900Z,12.75
2023-08-27T23:46:27.777Z,11.75
2023-08-27T23:48:57.487Z,15.00
2023-08-27T23:51:25.607Z,15.75
2023-08-27T23:53:53.898Z,14.75
2023-08-27T23:56:21.958Z,13.00
2023-08-27T23:58:50.191Z,11.50
